Time;durP1;ratioP1;P1;durP2;ratioP2;P2;SDS_P1;SDS_P2;PMS_P1;PMS_P2;Temp;Humidity;BMP_temperature;BMP_pressure;BME280_temperature;BME280_humidity;BME280_pressure;Samples;Min_cycle;Max_cycle;Signal;HPM_P1;HPM_P2
2023/06/13 00:01:04;;;;;;;7.80;2.97;;;10.70;99.90;;;;;;5041200;28;20187;-89
2023/06/13 00:03:30;;;;;;;5.53;2.50;;;10.70;99.90;;;;;;5075245;28;20214;-88
2023/06/13 00:05:56;;;;;;;4.65;2.75;;;10.70;99.90;;;;;;5075015;28;20167;-88
2023/06/13 00:08:24;;;;;;;8.82;2.78;;;10.80;99.90;;;;;;5075327;28;20207;-88
2023/06/13 00:10:51;;;;;;;3.40;2.63;;;10.80;99.90;;;;;;5075148;28;20211;-89
2023/06/13 00:13:18;;;;;;;3.90;2.90;;;10.70;99.90;;;;;;5075274;28;20175;-89
2023/06/13 00:15:52;;;;;;;5.22;3.35;;;10.70;99.90;;;;;;5075377;28;20181;-88
2023/06/13 00:18:40;;;;;;;4.85;2.42;;;10.80;99.90;;;;;;5075047;28;20187;-89
2023/06/13 00:21:06;;;;;;;3.17;2.60;;;10.80;99.90;;;;;;5075212;28;20266;-88
2023/06/13 00:23:32;;;;;;;4.07;3.08;;;10.80;99.90;;;;;;5075625;28;20262;-89
2023/06/13 00:25:58;;;;;;;5.75;3.38;;;10.80;99.90;;;;;;5075136;28;20203;-88
2023/06/13 00:28:23;;;;;;;5.63;3.85;;;10.70;99.90;;;;;;5074912;28;20262;-88
2023/06/13 00:30:51;;;;;;;5.72;3.22;;;10.80;99.90;;;;;;5074508;28;20176;-89
2023/06/13 00:33:17;;;;;;;7.75;3.28;;;10.80;99.90;;;;;;5074746;28;20195;-89
2023/06/13 00:35:43;;;;;;;4.40;3.10;;;10.70;99.90;;;;;;5057127;28;20546;-90
2023/06/13 00:38:10;;;;;;;6.03;3.45;;;10.70;99.90;;;;;;5057292;28;20199;-89
2023/06/13 00:40:36;;;;;;;8.25;4.00;;;10.80;99.90;;;;;;5074765;28;20203;-88
2023/06/13 00:43:02;;;;;;;6.40;3.53;;;10.80;99.90;;;;;;5074486;28;20179;-88
2023/06/13 00:45:29;;;;;;;7.28;3.95;;;10.80;99.90;;;;;;5057001;28;20232;-88
2023/06/13 00:48:05;;;;;;;8.32;3.47;;;10.70;99.90;;;;;;5074501;28;20214;-88
2023/06/13 00:50:36;;;;;;;6.00;3.55;;;10.70;99.90;;;;;;5074642;28;20256;-88
2023/06/13 00:53:08;;;;;;;8.02;4.03;;;10.70;99.90;;;;;;5056736;28;20675;-88
2023/06/13 00:55:34;;;;;;;8.93;3.85;;;10.60;99.90;;;;;;5075565;28;20261;-88
2023/06/13 00:58:06;;;;;;;7.93;4.15;;;10.60;99.90;;;;;;5056999;28;20207;-89
2023/06/13 01:00:33;;;;;;;10.32;4.30;;;10.70;99.90;;;;;;5042009;28;20224;-88
2023/06/13 01:03:02;;;;;;;10.43;4.63;;;10.70;99.90;;;;;;5074257;28;20708;-88
2023/06/13 01:05:30;;;;;;;7.28;4.60;;;10.70;99.90;;;;;;5075748;28;20183;-88
2023/06/13 01:07:57;;;;;;;7.13;4.25;;;10.70;99.90;;;;;;5076184;28;20605;-87
2023/06/13 01:10:27;;;;;;;8.10;4.25;;;10.60;99.90;;;;;;5076482;28;20262;-88
2023/06/13 01:13:14;;;;;;;8.98;4.28;;;10.70;99.90;;;;;;5058480;28;20258;-87
2023/06/13 01:16:21;;;;;;;7.68;4.43;;;10.70;99.90;;;;;;5076617;28;20171;-88
2023/06/13 01:18:50;;;;;;;7.63;4.28;;;10.70;99.90;;;;;;5052624;28;20624;-88
2023/06/13 01:21:17;;;;;;;7.80;4.75;;;10.70;99.90;;;;;;5056004;28;20217;-88
2023/06/13 01:24:02;;;;;;;6.72;4.07;;;10.60;99.90;;;;;;5056131;28;20534;-88
2023/06/13 01:26:46;;;;;;;11.73;4.75;;;10.70;99.90;;;;;;5074095;28;20159;-88
2023/06/13 01:29:15;;;;;;;9.30;4.63;;;10.70;99.90;;;;;;5073727;28;20305;-88
2023/06/13 01:31:43;;;;;;;5.47;3.80;;;10.70;99.90;;;;;;5073712;28;20627;-89
2023/06/13 01:34:10;;;;;;;13.30;3.65;;;10.60;99.90;;;;;;5055809;28;20207;-88
2023/06/13 01:36:36;;;;;;;8.43;3.97;;;10.60;99.90;;;;;;5073559;28;20529;-87
2023/06/13 01:39:02;;;;;;;12.35;4.07;;;10.60;99.90;;;;;;5073528;28;20178;-88
2023/06/13 01:41:27;;;;;;;7.20;3.75;;;10.60;99.90;;;;;;5073496;28;20175;-87
2023/06/13 01:43:54;;;;;;;5.53;3.28;;;10.60;99.90;;;;;;5073552;28;20175;-88
2023/06/13 01:46:24;;;;;;;7.57;3.25;;;10.60;99.90;;;;;;5055726;28;20190;-88
2023/06/13 01:48:56;;;;;;;6.88;4.18;;;10.60;99.90;;;;;;5073173;28;20218;-87
2023/06/13 01:51:29;;;;;;;4.95;3.20;;;10.60;99.90;;;;;;5073653;28;20163;-88
2023/06/13 01:54:01;;;;;;;6.53;4.05;;;10.60;99.90;;;;;;5073194;28;20182;-88
2023/06/13 01:56:31;;;;;;;10.15;3.72;;;10.60;99.90;;;;;;5056689;28;20534;-88
2023/06/13 01:59:00;;;;;;;5.65;3.25;;;10.60;99.90;;;;;;5073465;28;20272;-88
2023/06/13 02:01:32;;;;;;;5.70;3.67;;;10.60;99.90;;;;;;5073265;28;20171;-88
2023/06/13 02:04:01;;;;;;;5.43;3.67;;;10.60;99.90;;;;;;5073000;28;20208;-89
2023/06/13 02:06:28;;;;;;;6.95;3.80;;;10.60;99.90;;;;;;5073135;28;20250;-86
2023/06/13 02:08:55;;;;;;;6.15;3.28;;;10.60;99.90;;;;;;5072839;28;20222;-88
2023/06/13 02:11:21;;;;;;;7.88;3.40;;;10.50;99.90;;;;;;5073232;28;20209;-88
2023/06/13 02:13:48;;;;;;;5.28;3.35;;;10.50;99.90;;;;;;5073359;28;20183;-88
2023/06/13 02:16:14;;;;;;;4.78;2.63;;;10.50;99.90;;;;;;5072890;28;20663;-88
2023/06/13 02:18:40;;;;;;;5.50;3.28;;;10.50;99.90;;;;;;5073195;28;20215;-88
2023/06/13 02:21:07;;;;;;;5.18;2.97;;;10.50;99.90;;;;;;5072944;28;20199;-88
2023/06/13 02:23:32;;;;;;;5.32;3.20;;;10.50;99.90;;;;;;5073079;28;20202;-89
2023/06/13 02:25:58;;;;;;;5.20;3.42;;;10.60;99.90;;;;;;5057546;28;20659;-88
2023/06/13 02:28:24;;;;;;;5.60;3.05;;;10.60;99.90;;;;;;5076741;28;20243;-89
2023/06/13 02:30:50;;;;;;;4.70;2.65;;;10.60;99.90;;;;;;5075672;28;20175;-89
2023/06/13 02:33:15;;;;;;;5.38;2.80;;;10.60;99.90;;;;;;5077935;28;20183;-89
2023/06/13 02:35:42;;;;;;;5.72;3.13;;;10.60;99.90;;;;;;5083803;28;20167;-88
2023/06/13 02:38:08;;;;;;;5.88;3.90;;;10.60;99.90;;;;;;5090254;28;20172;-87
2023/06/13 02:40:37;;;;;;;4.65;2.92;;;10.70;99.90;;;;;;5100347;28;20175;-88
2023/06/13 02:43:03;;;;;;;5.47;3.28;;;10.60;99.90;;;;;;5096985;28;20234;-87
2023/06/13 02:45:29;;;;;;;6.90;3.50;;;10.70;99.90;;;;;;5100386;28;20163;-87
2023/06/13 02:47:55;;;;;;;6.28;2.80;;;10.60;99.90;;;;;;5099746;28;20201;-84
2023/06/13 02:50:21;;;;;;;4.30;2.83;;;10.60;99.90;;;;;;5099867;28;20279;-86
2023/06/13 02:52:47;;;;;;;4.90;3.13;;;10.60;99.90;;;;;;5089212;28;20189;-89
2023/06/13 02:55:13;;;;;;;4.30;2.95;;;10.60;99.90;;;;;;5075332;28;20179;-89
2023/06/13 02:57:39;;;;;;;5.63;3.25;;;10.60;99.90;;;;;;5075341;28;20587;-89
2023/06/13 03:00:10;;;;;;;5.38;2.78;;;10.60;99.90;;;;;;5057658;28;20176;-88
2023/06/13 03:02:39;;;;;;;3.78;2.75;;;10.60;99.90;;;;;;5057090;28;20182;-89
2023/06/13 03:05:07;;;;;;;5.15;2.63;;;10.60;99.90;;;;;;5057585;28;20179;-88
2023/06/13 03:07:33;;;;;;;3.08;2.38;;;10.50;99.90;;;;;;5075518;28;20214;-89
2023/06/13 03:10:00;;;;;;;4.65;3.03;;;10.50;99.90;;;;;;5075209;28;20175;-88
2023/06/13 03:12:26;;;;;;;5.72;2.97;;;10.50;99.90;;;;;;5075412;28;20689;-89
2023/06/13 03:14:52;;;;;;;4.05;2.83;;;10.50;99.90;;;;;;5074999;28;20203;-88
2023/06/13 03:17:17;;;;;;;5.00;3.20;;;10.40;99.90;;;;;;5074859;28;20498;-89
2023/06/13 03:19:43;;;;;;;4.18;3.05;;;10.50;99.90;;;;;;5056892;28;20683;-89
2023/06/13 03:22:13;;;;;;;5.43;3.03;;;10.50;99.90;;;;;;5074495;28;20171;-88
2023/06/13 03:24:44;;;;;;;4.45;3.10;;;10.50;99.90;;;;;;5074824;28;20179;-88
2023/06/13 03:27:12;;;;;;;4.68;2.67;;;10.50;99.90;;;;;;5074560;28;20230;-88
2023/06/13 03:29:40;;;;;;;4.25;2.85;;;10.40;99.90;;;;;;5036432;28;1108973;-88
2023/06/13 03:32:07;;;;;;;4.22;3.28;;;10.50;99.90;;;;;;5075405;28;20187;-87
2023/06/13 03:34:37;;;;;;;3.85;2.70;;;10.40;99.90;;;;;;5075940;28;20179;-88
2023/06/13 03:37:05;;;;;;;7.22;3.30;;;10.40;99.90;;;;;;5075239;28;20171;-87
2023/06/13 03:39:30;;;;;;;4.85;2.63;;;10.50;99.90;;;;;;5075908;28;20188;-89
2023/06/13 03:41:56;;;;;;;5.63;3.15;;;10.50;99.90;;;;;;5076063;28;20533;-87
2023/06/13 03:44:22;;;;;;;4.95;2.97;;;10.50;99.90;;;;;;5057729;28;20258;-88
2023/06/13 03:46:47;;;;;;;5.57;3.22;;;10.50;99.90;;;;;;5057400;28;20263;-87
2023/06/13 03:49:13;;;;;;;4.28;3.13;;;10.50;99.90;;;;;;5057547;28;20184;-90
2023/06/13 03:51:38;;;;;;;3.20;2.53;;;10.50;99.90;;;;;;5075851;28;20175;-89
2023/06/13 03:54:04;;;;;;;4.28;2.55;;;10.50;99.90;;;;;;5063106;28;20182;-89
2023/06/13 03:56:30;;;;;;;5.85;3.40;;;10.50;99.90;;;;;;5081834;28;20175;-89
2023/06/13 03:58:55;;;;;;;5.35;3.20;;;10.50;99.90;;;;;;5080048;28;20221;-92
2023/06/13 04:01:21;;;;;;;6.35;2.67;;;10.50;99.90;;;;;;5077144;28;20175;-88
2023/06/13 04:03:47;;;;;;;5.07;3.58;;;10.40;99.90;;;;;;5075915;28;20175;-88
2023/06/13 04:06:12;;;;;;;4.85;3.10;;;10.40;99.90;;;;;;5075574;28;20270;-89
2023/06/13 04:08:39;;;;;;;5.07;3.25;;;10.40;99.90;;;;;;5075571;28;20297;-89
2023/06/13 04:11:05;;;;;;;6.90;3.40;;;10.50;99.90;;;;;;5057715;28;20179;-88
2023/06/13 04:13:31;;;;;;;7.22;3.78;;;10.50;99.90;;;;;;5057875;28;20217;-89
2023/06/13 04:15:56;;;;;;;4.47;3.28;;;10.50;99.90;;;;;;5076668;28;20593;-89
2023/06/13 04:18:23;;;;;;;5.72;3.70;;;10.50;99.90;;;;;;5057736;28;20324;-87
2023/06/13 04:20:52;;;;;;;6.20;3.33;;;10.50;99.90;;;;;;5040879;28;20183;-90
2023/06/13 04:23:19;;;;;;;8.80;3.58;;;10.50;99.90;;;;;;5074945;28;20179;-89
2023/06/13 04:25:44;;;;;;;7.90;3.90;;;10.60;99.90;;;;;;5057101;28;20183;-90
2023/06/13 04:28:13;;;;;;;6.30;3.28;;;10.60;99.90;;;;;;5074590;28;20235;-89
2023/06/13 04:30:40;;;;;;;6.00;3.33;;;10.60;99.90;;;;;;5074705;28;20667;-90
2023/06/13 04:33:14;;;;;;;6.40;3.70;;;10.60;99.90;;;;;;5074780;28;20184;-90
2023/06/13 04:35:44;;;;;;;6.07;3.60;;;10.70;99.90;;;;;;5075142;28;20708;-89
2023/06/13 04:38:20;;;;;;;6.72;3.92;;;10.60;99.90;;;;;;5074540;28;20179;-89
2023/06/13 04:40:46;;;;;;;7.03;3.88;;;10.60;99.90;;;;;;5060624;28;20277;-88
2023/06/13 04:43:14;;;;;;;4.60;3.30;;;10.60;99.90;;;;;;5078678;28;20211;-90
2023/06/13 04:45:42;;;;;;;7.25;3.60;;;10.60;99.90;;;;;;5072460;28;20179;-87
2023/06/13 04:48:09;;;;;;;5.88;3.53;;;10.60;99.90;;;;;;5038275;28;20535;-88
2023/06/13 04:50:37;;;;;;;5.78;2.85;;;10.60;99.90;;;;;;5056200;28;20179;-88
2023/06/13 04:53:07;;;;;;;4.47;2.72;;;10.70;99.90;;;;;;5076091;28;20175;-87
2023/06/13 04:55:35;;;;;;;4.57;3.00;;;10.70;99.90;;;;;;5063745;28;20198;-86
2023/06/13 04:58:01;;;;;;;4.35;2.88;;;10.70;99.90;;;;;;5063760;28;20190;-87
2023/06/13 05:00:27;;;;;;;7.28;3.88;;;10.80;99.90;;;;;;5077813;28;20542;-88
2023/06/13 05:02:55;;;;;;;5.70;3.75;;;10.80;99.90;;;;;;5055769;28;20216;-88
2023/06/13 05:05:22;;;;;;;4.70;3.30;;;10.80;99.90;;;;;;5073101;28;20202;-86
2023/06/13 05:07:55;;;;;;;5.30;2.97;;;10.80;99.90;;;;;;5073194;28;20203;-87
2023/06/13 05:10:24;;;;;;;4.00;2.80;;;10.80;99.90;;;;;;5081079;28;20546;-87
2023/06/13 05:12:49;;;;;;;3.92;2.90;;;10.80;99.90;;;;;;5093683;28;20261;-87
2023/06/13 05:15:16;;;;;;;3.60;2.63;;;10.80;99.90;;;;;;5093337;28;20671;-88
2023/06/13 05:17:45;;;;;;;3.20;2.38;;;10.90;99.90;;;;;;5074817;28;20198;-87
2023/06/13 05:20:12;;;;;;;3.08;2.42;;;10.80;99.90;;;;;;5068410;28;20217;-89
2023/06/13 05:22:39;;;;;;;4.50;2.80;;;10.90;99.90;;;;;;5052847;28;20559;-88
2023/06/13 05:25:08;;;;;;;5.45;3.05;;;11.00;99.90;;;;;;5068637;28;20184;-89
2023/06/13 05:27:35;;;;;;;6.25;3.53;;;11.00;99.90;;;;;;5055680;28;20229;-87
2023/06/13 05:30:00;;;;;;;6.05;3.08;;;11.10;99.90;;;;;;5052053;28;20246;-87
2023/06/13 05:32:26;;;;;;;3.70;2.80;;;11.20;99.90;;;;;;5070667;28;20179;-86
2023/06/13 05:34:52;;;;;;;3.35;2.28;;;11.20;99.90;;;;;;5070664;28;20179;-85
2023/06/13 05:37:18;;;;;;;3.22;2.50;;;11.10;99.90;;;;;;5069311;28;20190;-86
2023/06/13 05:39:44;;;;;;;4.18;2.95;;;11.10;99.90;;;;;;5052314;28;20276;-87
2023/06/13 05:42:10;;;;;;;4.57;2.85;;;11.20;99.90;;;;;;5064653;28;20641;-86
2023/06/13 05:44:36;;;;;;;6.90;3.65;;;11.20;99.90;;;;;;5051996;28;20183;-87
2023/06/13 05:47:02;;;;;;;3.33;2.60;;;11.10;99.90;;;;;;5069532;28;20284;-88
2023/06/13 05:49:28;;;;;;;2.78;2.50;;;11.20;99.90;;;;;;5070401;28;20194;-86
2023/06/13 05:51:53;;;;;;;5.55;2.95;;;11.20;99.90;;;;;;5052559;28;20554;-87
2023/06/13 05:54:20;;;;;;;4.70;2.72;;;11.30;99.90;;;;;;5070378;28;20713;-86
2023/06/13 05:56:45;;;;;;;3.53;2.55;;;11.30;99.90;;;;;;5037578;28;20188;-85
2023/06/13 05:59:14;;;;;;;3.67;2.60;;;11.40;99.90;;;;;;5062439;28;20194;-86
2023/06/13 06:01:41;;;;;;;3.80;2.75;;;11.40;99.90;;;;;;5068509;28;20189;-87
2023/06/13 06:04:07;;;;;;;10.98;2.90;;;11.50;99.90;;;;;;5068696;28;20216;-86
2023/06/13 06:06:34;;;;;;;5.00;2.85;;;11.50;99.90;;;;;;5043891;28;20188;-86
2023/06/13 06:09:00;;;;;;;3.20;2.33;;;11.50;99.90;;;;;;5069067;28;20630;-87
2023/06/13 06:11:27;;;;;;;5.72;3.10;;;11.60;99.90;;;;;;5052485;28;20179;-89
2023/06/13 06:13:52;;;;;;;3.40;2.50;;;11.50;99.90;;;;;;5070866;28;20191;-87
2023/06/13 06:16:18;;;;;;;4.18;2.65;;;11.50;99.90;;;;;;5070393;28;20179;-85
2023/06/13 06:18:44;;;;;;;3.85;2.40;;;11.50;99.90;;;;;;5055825;28;20246;-86
2023/06/13 06:21:10;;;;;;;5.50;3.33;;;11.50;99.90;;;;;;5031923;28;20187;-85
2023/06/13 06:23:37;;;;;;;6.30;3.20;;;11.50;99.90;;;;;;5068892;28;20198;-87
2023/06/13 06:26:03;;;;;;;6.78;3.65;;;11.50;99.90;;;;;;5069809;28;20265;-89
2023/06/13 06:28:28;;;;;;;4.10;2.75;;;11.50;99.90;;;;;;5034810;28;20342;-87
2023/06/13 06:30:54;;;;;;;5.35;3.42;;;11.60;99.90;;;;;;5051880;28;20749;-85
2023/06/13 06:33:20;;;;;;;5.82;3.15;;;11.50;99.90;;;;;;5069804;28;20264;-86
2023/06/13 06:35:45;;;;;;;9.77;3.50;;;11.50;99.90;;;;;;5070092;28;20171;-86
2023/06/13 06:38:11;;;;;;;5.88;3.78;;;11.50;99.90;;;;;;5070152;28;20197;-86
2023/06/13 06:40:37;;;;;;;5.72;3.78;;;11.50;99.90;;;;;;5069505;28;20230;-87
2023/06/13 06:43:02;;;;;;;5.93;3.80;;;11.50;99.90;;;;;;5069909;28;20186;-87
2023/06/13 06:45:28;;;;;;;6.95;4.57;;;11.50;99.90;;;;;;5069911;28;20175;-86
2023/06/13 06:47:54;;;;;;;10.35;4.35;;;11.60;99.90;;;;;;5064816;28;20208;-87
2023/06/13 06:50:20;;;;;;;8.65;4.80;;;11.60;99.90;;;;;;5064583;28;20183;-87
2023/06/13 06:52:46;;;;;;;8.30;5.35;;;11.50;99.90;;;;;;5045186;28;20679;-85
2023/06/13 06:55:12;;;;;;;8.70;5.18;;;11.50;99.90;;;;;;5068782;28;20189;-88
2023/06/13 06:57:38;;;;;;;12.85;5.43;;;11.60;99.90;;;;;;5054015;28;20732;-86
2023/06/13 07:00:05;;;;;;;15.65;6.18;;;11.60;99.90;;;;;;5060129;28;20283;-88
2023/06/13 07:02:30;;;;;;;7.43;4.75;;;11.60;99.90;;;;;;5061587;28;20560;-86
2023/06/13 07:04:57;;;;;;;8.85;4.55;;;11.60;99.90;;;;;;5050619;28;20179;-88
2023/06/13 07:07:23;;;;;;;8.68;5.20;;;11.60;99.90;;;;;;5049395;28;20638;-88
2023/06/13 07:09:49;;;;;;;8.00;4.25;;;11.60;99.90;;;;;;5047082;28;20257;-89
2023/06/13 07:12:15;;;;;;;7.15;4.80;;;11.60;99.90;;;;;;5072431;28;20268;-86
2023/06/13 07:14:40;;;;;;;8.18;4.75;;;11.70;99.90;;;;;;5072915;28;20211;-88
2023/06/13 07:17:06;;;;;;;9.55;4.88;;;11.70;99.90;;;;;;5074467;28;20213;-89
2023/06/13 07:19:32;;;;;;;7.00;4.85;;;11.70;99.90;;;;;;5074983;28;20187;-88
2023/06/13 07:21:59;;;;;;;7.00;4.15;;;11.80;99.90;;;;;;5075095;28;20686;-88
2023/06/13 07:24:25;;;;;;;11.00;5.07;;;11.80;99.90;;;;;;5079525;28;20649;-89
2023/06/13 07:26:50;;;;;;;10.88;5.25;;;11.90;99.90;;;;;;5065637;28;20263;-88
2023/06/13 07:29:16;;;;;;;7.97;5.15;;;12.00;99.90;;;;;;5083248;28;20226;-88
2023/06/13 07:31:41;;;;;;;10.48;5.28;;;12.00;99.90;;;;;;5067384;28;20178;-86
2023/06/13 07:34:07;;;;;;;7.32;4.40;;;12.00;99.90;;;;;;5065101;28;20183;-87
2023/06/13 07:36:33;;;;;;;8.82;4.57;;;12.00;99.90;;;;;;5089111;28;20179;-87
2023/06/13 07:39:08;;;;;;;6.65;4.45;;;12.00;99.90;;;;;;5095228;28;20240;-87
2023/06/13 07:41:36;;;;;;;6.53;4.38;;;12.00;99.90;;;;;;5082603;28;20171;-87
2023/06/13 07:44:02;;;;;;;10.30;4.93;;;12.00;99.90;;;;;;5082252;28;20190;-89
2023/06/13 07:46:28;;;;;;;10.27;4.47;;;12.00;99.90;;;;;;5065654;28;20225;-88
2023/06/13 07:48:53;;;;;;;7.30;4.43;;;12.00;99.90;;;;;;5066931;28;20571;-88
2023/06/13 07:51:19;;;;;;;7.70;4.63;;;12.00;99.90;;;;;;5079552;28;20183;-89
2023/06/13 07:53:45;;;;;;;6.55;4.15;;;12.00;99.90;;;;;;5074370;28;20202;-88
2023/06/13 07:56:11;;;;;;;8.45;4.85;;;12.00;99.90;;;;;;5074373;28;20206;-87
2023/06/13 07:58:36;;;;;;;8.60;4.70;;;12.00;99.90;;;;;;5079591;28;20671;-87
2023/06/13 08:01:03;;;;;;;5.95;3.80;;;12.10;99.90;;;;;;5061830;28;20266;-89
2023/06/13 08:03:29;;;;;;;8.13;4.85;;;12.10;99.90;;;;;;5075882;28;20210;-87
2023/06/13 08:05:55;;;;;;;7.47;4.22;;;12.10;99.90;;;;;;5080311;28;20218;-88
2023/06/13 08:08:20;;;;;;;8.60;5.15;;;12.20;99.90;;;;;;5078877;28;20242;-87
2023/06/13 08:10:46;;;;;;;9.32;4.55;;;12.20;99.90;;;;;;5082251;28;20719;-88
2023/06/13 08:13:12;;;;;;;8.02;4.78;;;12.20;99.90;;;;;;5082687;28;20206;-87
2023/06/13 08:15:37;;;;;;;7.25;4.68;;;12.20;99.90;;;;;;5084239;28;20219;-87
2023/06/13 08:18:03;;;;;;;10.00;5.65;;;12.20;99.90;;;;;;5066669;28;20188;-88
2023/06/13 08:20:29;;;;;;;7.68;3.97;;;12.30;99.90;;;;;;5080271;28;20648;-87
2023/06/13 08:22:56;;;;;;;14.30;4.50;;;12.30;99.90;;;;;;5066368;28;20262;-87
2023/06/13 08:25:21;;;;;;;8.40;4.20;;;12.30;99.90;;;;;;5082151;28;20187;-88
2023/06/13 08:27:48;;;;;;;6.80;4.55;;;12.30;99.90;;;;;;5083853;28;20583;-86
2023/06/13 08:30:14;;;;;;;14.05;4.85;;;12.30;99.90;;;;;;5081667;28;20178;-87
2023/06/13 08:32:41;;;;;;;10.38;4.88;;;12.30;99.90;;;;;;5084925;28;20183;-87
2023/06/13 08:35:07;;;;;;;9.32;5.10;;;12.30;99.90;;;;;;5080165;28;20167;-88
2023/06/13 08:37:33;;;;;;;12.45;5.68;;;12.40;99.90;;;;;;5065343;28;20196;-87
2023/06/13 08:39:59;;;;;;;11.68;5.78;;;12.40;99.90;;;;;;5084540;28;20167;-86
2023/06/13 08:42:26;;;;;;;8.13;5.32;;;12.50;99.90;;;;;;5084972;28;20186;-88
2023/06/13 08:44:52;;;;;;;6.10;4.60;;;12.50;99.90;;;;;;5083080;28;20658;-87
2023/06/13 08:47:18;;;;;;;9.10;4.90;;;12.50;99.90;;;;;;5082705;28;20206;-88
2023/06/13 08:49:48;;;;;;;9.95;5.15;;;12.40;99.90;;;;;;5066119;28;20186;-87
2023/06/13 08:52:16;;;;;;;7.28;4.65;;;12.40;99.90;;;;;;5084414;28;20174;-87
2023/06/13 08:54:44;;;;;;;7.60;4.88;;;12.30;99.90;;;;;;5083835;28;20261;-87
2023/06/13 08:57:14;;;;;;;8.13;5.40;;;12.30;99.90;;;;;;5091168;28;20186;-87
2023/06/13 08:59:46;;;;;;;7.03;4.68;;;12.30;99.90;;;;;;5085699;28;20669;-88
2023/06/13 09:02:17;;;;;;;6.35;4.40;;;12.30;99.90;;;;;;5084140;28;20175;-88
2023/06/13 09:04:45;;;;;;;7.55;4.90;;;12.30;99.90;;;;;;5082699;28;20175;-86
2023/06/13 09:07:12;;;;;;;8.27;5.18;;;12.30;99.90;;;;;;5082141;28;20214;-88
2023/06/13 09:09:39;;;;;;;8.40;4.97;;;12.40;99.90;;;;;;5038352;28;20186;-88
2023/06/13 09:12:07;;;;;;;6.93;4.43;;;12.40;99.90;;;;;;5077954;28;20186;-88
2023/06/13 09:14:32;;;;;;;9.43;4.55;;;12.50;99.90;;;;;;5078701;28;20695;-87
2023/06/13 09:16:58;;;;;;;8.68;4.25;;;12.50;99.90;;;;;;5080635;28;20271;-88
2023/06/13 09:19:24;;;;;;;8.05;4.72;;;12.50;99.90;;;;;;5072912;28;20627;-87
2023/06/13 09:21:50;;;;;;;7.05;5.00;;;12.50;99.90;;;;;;5077569;28;20541;-85
2023/06/13 09:24:16;;;;;;;8.73;4.78;;;12.50;99.90;;;;;;5072261;28;20171;-86
2023/06/13 09:26:42;;;;;;;9.65;5.25;;;12.50;99.90;;;;;;5057826;28;20179;-87
2023/06/13 09:29:08;;;;;;;8.80;4.45;;;12.50;99.90;;;;;;5062735;28;20234;-86
2023/06/13 09:31:38;;;;;;;9.43;5.30;;;12.60;99.90;;;;;;5090903;28;20271;-88
2023/06/13 09:34:05;;;;;;;7.03;4.50;;;12.60;99.90;;;;;;5075539;28;20178;-87
2023/06/13 09:36:32;;;;;;;11.35;5.00;;;12.70;99.90;;;;;;5080364;28;20175;-90
2023/06/13 09:38:59;;;;;;;7.18;4.25;;;12.70;99.90;;;;;;5054552;28;20199;-87
2023/06/13 09:41:26;;;;;;;6.63;4.07;;;12.80;99.90;;;;;;5037071;28;20536;-88
2023/06/13 09:43:52;;;;;;;7.15;4.18;;;12.90;99.90;;;;;;5071427;28;20175;-87
2023/06/13 09:46:23;;;;;;;7.38;4.47;;;12.90;99.90;;;;;;5071728;28;20171;-91
2023/06/13 09:48:49;;;;;;;15.05;4.38;;;12.90;99.90;;;;;;5071483;28;20209;-87
2023/06/13 09:51:15;;;;;;;6.38;4.55;;;12.90;99.90;;;;;;5053492;28;20210;-85
2023/06/13 09:53:45;;;;;;;6.93;3.85;;;12.90;99.90;;;;;;5071495;28;20640;-83
2023/06/13 09:56:11;;;;;;;6.43;3.65;;;13.00;99.90;;;;;;5075157;28;20167;-87
2023/06/13 09:58:37;;;;;;;7.00;5.30;;;12.90;99.90;;;;;;5038782;28;20179;-89
2023/06/13 10:01:06;;;;;;;7.35;4.43;;;12.90;99.90;;;;;;5055185;28;20175;-88
2023/06/13 10:03:31;;;;;;;7.82;4.05;;;12.80;99.90;;;;;;5073334;28;20258;-89
2023/06/13 10:05:58;;;;;;;6.03;4.03;;;12.90;99.90;;;;;;5055394;28;20268;-91
2023/06/13 10:08:25;;;;;;;10.82;4.50;;;12.90;99.90;;;;;;5073026;28;20650;-88
2023/06/13 10:10:50;;;;;;;8.68;4.47;;;12.90;99.90;;;;;;5073168;28;20187;-88
2023/06/13 10:13:21;;;;;;;9.50;4.63;;;12.90;99.90;;;;;;5072917;28;20179;-89
2023/06/13 10:15:58;;;;;;;7.00;3.78;;;12.90;99.90;;;;;;5073109;28;20163;-89
2023/06/13 10:18:37;;;;;;;6.57;4.07;;;12.90;99.90;;;;;;5073522;28;20236;-90
2023/06/13 10:21:04;;;;;;;6.47;4.20;;;12.90;99.90;;;;;;5074469;28;20217;-87
2023/06/13 10:23:33;;;;;;;8.38;4.90;;;13.00;99.90;;;;;;5058042;28;20202;-88
2023/06/13 10:26:06;;;;;;;7.53;4.05;;;13.00;99.90;;;;;;5083830;28;20199;-87
2023/06/13 10:28:53;;;;;;;8.70;4.50;;;13.00;99.90;;;;;;5091659;28;20249;-87
2023/06/13 10:31:42;;;;;;;6.75;3.67;;;13.00;99.90;;;;;;5084823;28;20175;-88
2023/06/13 10:34:15;;;;;;;6.97;3.67;;;13.00;99.90;;;;;;5073311;28;20182;-88
2023/06/13 10:37:19;;;;;;;6.18;4.05;;;13.10;99.90;;;;;;5074904;28;20192;-89
2023/06/13 10:40:18;;;;;;;6.05;4.00;;;13.00;99.90;;;;;;5073459;28;20179;-87
2023/06/13 10:42:51;;;;;;;7.70;4.15;;;13.00;99.90;;;;;;5055230;28;20602;-89
2023/06/13 10:45:21;;;;;;;8.63;4.85;;;13.00;99.90;;;;;;5055294;28;20176;-88
2023/06/13 10:47:47;;;;;;;7.25;4.40;;;13.00;99.90;;;;;;5060223;28;20186;-89
2023/06/13 10:50:17;;;;;;;11.35;5.38;;;13.00;99.90;;;;;;5066360;28;20258;-89
2023/06/13 10:52:54;;;;;;;8.07;5.40;;;12.90;99.90;;;;;;5064516;28;20186;-90
2023/06/13 10:55:25;;;;;;;9.57;5.35;;;12.90;99.90;;;;;;5080283;28;20171;-89
2023/06/13 10:57:53;;;;;;;10.98;5.25;;;13.00;99.90;;;;;;5058986;28;20187;-89
2023/06/13 11:00:26;;;;;;;6.93;4.25;;;13.00;99.90;;;;;;5078764;28;20171;-89
2023/06/13 11:03:07;;;;;;;6.63;3.97;;;13.00;99.90;;;;;;5076368;28;20250;-89
2023/06/13 11:05:36;;;;;;;7.68;4.50;;;13.00;99.90;;;;;;5058614;28;20175;-89
2023/06/13 11:08:04;;;;;;;8.85;4.60;;;13.00;99.90;;;;;;5075910;28;20260;-90
2023/06/13 11:10:30;;;;;;;4.40;3.45;;;13.00;99.90;;;;;;5076262;28;20195;-89
2023/06/13 11:12:56;;;;;;;9.70;4.28;;;12.90;99.90;;;;;;5076383;28;20175;-89
2023/06/13 11:15:24;;;;;;;6.93;4.15;;;13.00;99.90;;;;;;5076706;28;20261;-90
2023/06/13 11:18:07;;;;;;;9.48;3.88;;;13.00;99.90;;;;;;5076330;28;20194;-85
2023/06/13 11:20:34;;;;;;;6.93;3.45;;;13.00;99.90;;;;;;5076299;28;20217;-87
2023/06/13 11:23:01;;;;;;;7.20;3.42;;;13.10;99.90;;;;;;5076119;28;20187;-87
2023/06/13 11:25:28;;;;;;;9.88;3.85;;;13.00;99.90;;;;;;5076476;28;20183;-87
2023/06/13 11:27:53;;;;;;;8.48;3.10;;;13.10;99.90;;;;;;5075527;28;20207;-87
2023/06/13 11:30:19;;;;;;;5.38;3.80;;;13.10;99.90;;;;;;5058113;28;20190;-87
2023/06/13 11:32:47;;;;;;;6.82;4.43;;;13.10;99.90;;;;;;5076225;28;20261;-87
2023/06/13 11:35:17;;;;;;;6.35;3.72;;;13.10;99.90;;;;;;5075917;28;20168;-87
2023/06/13 11:37:48;;;;;;;10.75;5.20;;;13.00;99.90;;;;;;5057785;28;20179;-88
2023/06/13 11:40:30;;;;;;;7.97;4.32;;;13.10;99.90;;;;;;5057553;28;20211;-87
2023/06/13 11:42:57;;;;;;;14.18;4.35;;;13.10;99.90;;;;;;5076015;28;20186;-87
2023/06/13 11:45:23;;;;;;;8.20;4.35;;;13.10;99.90;;;;;;5075869;28;20297;-87
2023/06/13 11:47:59;;;;;;;14.43;5.43;;;13.10;99.90;;;;;;5075431;28;20220;-87
2023/06/13 11:50:26;;;;;;;9.00;4.93;;;13.10;99.90;;;;;;5075612;28;20175;-87
2023/06/13 11:53:08;;;;;;;6.80;4.38;;;13.10;99.90;;;;;;5075927;28;20250;-85
2023/06/13 11:55:35;;;;;;;8.45;4.85;;;13.30;99.90;;;;;;5075885;28;20241;-87
2023/06/13 11:58:01;;;;;;;8.02;4.60;;;13.40;99.90;;;;;;5075430;28;20192;-87
2023/06/13 12:00:28;;;;;;;5.47;3.65;;;13.50;99.90;;;;;;5058743;28;20262;-88
2023/06/13 12:02:57;;;;;;;5.75;3.92;;;13.70;99.90;;;;;;5075639;28;20191;-85
2023/06/13 12:05:23;;;;;;;5.32;3.42;;;13.90;99.90;;;;;;5076102;28;20663;-87
2023/06/13 12:07:50;;;;;;;5.15;3.58;;;14.00;99.90;;;;;;5041122;28;20239;-89
2023/06/13 12:10:19;;;;;;;8.85;2.97;;;14.10;99.90;;;;;;5074987;28;20179;-88
2023/06/13 12:12:58;;;;;;;6.13;3.65;;;14.20;99.90;;;;;;5082259;28;20202;-88
2023/06/13 12:15:25;;;;;;;4.38;2.97;;;14.30;99.90;;;;;;5082586;28;20163;-88
2023/06/13 12:18:02;;;;;;;5.05;2.95;;;14.30;99.90;;;;;;5082134;28;20198;-91
2023/06/13 12:20:28;;;;;;;5.95;2.90;;;14.30;99.90;;;;;;5057815;28;20207;-90
2023/06/13 12:22:59;;;;;;;4.85;2.97;;;14.40;99.90;;;;;;5057058;28;20183;-89
2023/06/13 12:25:30;;;;;;;3.90;2.92;;;14.60;99.90;;;;;;5074833;28;20336;-89
2023/06/13 12:27:57;;;;;;;4.38;2.88;;;14.60;99.90;;;;;;5074292;28;20199;-85
2023/06/13 12:30:23;;;;;;;4.32;2.70;;;14.60;99.90;;;;;;5057293;28;20179;-89
2023/06/13 12:32:56;;;;;;;4.50;2.95;;;14.50;99.90;;;;;;5056349;28;20190;-89
2023/06/13 12:35:24;;;;;;;4.93;2.97;;;14.50;99.90;;;;;;5073988;28;20203;-89
2023/06/13 12:38:02;;;;;;;5.13;2.95;;;14.50;99.90;;;;;;5056440;28;20648;-88
2023/06/13 12:40:35;;;;;;;3.83;2.33;;;14.40;99.90;;;;;;5073995;28;20168;-89
2023/06/13 12:43:04;;;;;;;3.08;2.25;;;14.30;99.90;;;;;;5073865;28;20183;-88
2023/06/13 12:45:33;;;;;;;3.75;2.55;;;14.20;99.90;;;;;;5074646;28;20178;-89
2023/06/13 12:47:59;;;;;;;3.15;2.00;;;14.30;99.90;;;;;;5074537;28;20213;-87
2023/06/13 12:50:26;;;;;;;3.15;2.30;;;14.30;99.90;;;;;;5074159;28;20214;-89